sensor_id;sensor_type;location;lat;lon;timestamp;temperature;humidity
52731;DHT22;38624;53.242;6.974;2023-02-01T00:00:33;6.90;99.90
52731;DHT22;38624;53.242;6.974;2023-02-01T00:03:00;6.80;99.90
52731;DHT22;38624;53.242;6.974;2023-02-01T00:05:25;7.00;99.90
52731;DHT22;38624;53.242;6.974;2023-02-01T00:07:51;6.80;99.90
52731;DHT22;38624;53.242;6.974;2023-02-01T00:10:16;6.80;99.90
52731;DHT22;38624;53.242;6.974;2023-02-01T00:12:42;6.90;99.90
52731;DHT22;38624;53.242;6.974;2023-02-01T00:15:08;6.80;99.90
52731;DHT22;38624;53.242;6.974;2023-02-01T00:17:34;7.00;99.90
52731;DHT22;38624;53.242;6.974;2023-02-01T00:19:59;7.20;99.90
52731;DHT22;38624;53.242;6.974;2023-02-01T00:22:25;6.90;99.90
52731;DHT22;38624;53.242;6.974;2023-02-01T00:24:50;6.90;99.90
52731;DHT22;38624;53.242;6.974;2023-02-01T00:27:16;7.00;99.90
52731;DHT22;38624;53.242;6.974;2023-02-01T00:29:45;6.90;99.90
52731;DHT22;38624;53.242;6.974;2023-02-01T00:32:11;6.90;99.90
52731;DHT22;38624;53.242;6.974;2023-02-01T00:34:36;6.70;99.90
52731;DHT22;38624;53.242;6.974;2023-02-01T00:37:02;7.00;99.90
52731;DHT22;38624;53.242;6.974;2023-02-01T00:39:27;7.10;99.90
52731;DHT22;38624;53.242;6.974;2023-02-01T00:41:53;7.20;99.90
52731;DHT22;38624;53.242;6.974;2023-02-01T00:44:19;6.90;99.90
52731;DHT22;38624;53.242;6.974;2023-02-01T00:46:44;7.00;99.90
52731;DHT22;38624;53.242;6.974;2023-02-01T00:49:10;6.80;99.90
52731;DHT22;38624;53.242;6.974;2023-02-01T00:51:35;7.00;99.90
52731;DHT22;38624;53.242;6.974;2023-02-01T00:54:01;7.00;99.90
52731;DHT22;38624;53.242;6.974;2023-02-01T00:56:28;7.00;99.90
52731;DHT22;38624;53.242;6.974;2023-02-01T00:58:54;7.00;99.90
52731;DHT22;38624;53.242;6.974;2023-02-01T01:01:21;7.00;99.90
52731;DHT22;38624;53.242;6.974;2023-02-01T01:03:48;7.00;99.90
52731;DHT22;38624;53.242;6.974;2023-02-01T01:06:16;7.20;99.90
52731;DHT22;38624;53.242;6.974;2023-02-01T01:08:42;7.20;99.90
52731;DHT22;38624;53.242;6.974;2023-02-01T01:11:10;6.90;99.90
52731;DHT22;38624;53.242;6.974;2023-02-01T01:13:35;7.00;99.90
52731;DHT22;38624;53.242;6.974;2023-02-01T01:16:01;7.20;99.90
52731;DHT22;38624;53.242;6.974;2023-02-01T01:18:28;7.10;99.90
52731;DHT22;38624;53.242;6.974;2023-02-01T01:20:53;6.90;99.90
52731;DHT22;38624;53.242;6.974;2023-02-01T01:23:19;6.90;99.90
52731;DHT22;38624;53.242;6.974;2023-02-01T01:25:44;7.00;99.90
52731;DHT22;38624;53.242;6.974;2023-02-01T01:28:10;6.90;99.90
52731;DHT22;38624;53.242;6.974;2023-02-01T01:30:36;6.90;99.90
52731;DHT22;38624;53.242;6.974;2023-02-01T01:33:01;6.90;99.90
52731;DHT22;38624;53.242;6.974;2023-02-01T01:35:28;6.90;99.90
52731;DHT22;38624;53.242;6.974;2023-02-01T01:37:54;6.90;99.90
52731;DHT22;38624;53.242;6.974;2023-02-01T01:40:20;6.90;99.90
52731;DHT22;38624;53.242;6.974;2023-02-01T01:42:45;6.90;99.90
52731;DHT22;38624;53.242;6.974;2023-02-01T01:45:22;6.90;99.90
52731;DHT22;38624;53.242;6.974;2023-02-01T01:47:49;6.90;99.90
52731;DHT22;38624;53.242;6.974;2023-02-01T01:50:17;6.90;99.90
52731;DHT22;38624;53.242;6.974;2023-02-01T01:52:46;6.60;99.90
52731;DHT22;38624;53.242;6.974;2023-02-01T01:55:13;6.60;99.90
52731;DHT22;38624;53.242;6.974;2023-02-01T01:57:39;6.80;99.90
52731;DHT22;38624;53.242;6.974;2023-02-01T02:00:12;6.70;99.90
52731;DHT22;38624;53.242;6.974;2023-02-01T02:02:38;6.90;99.90
52731;DHT22;38624;53.242;6.974;2023-02-01T02:05:04;7.10;99.90
52731;DHT22;38624;53.242;6.974;2023-02-01T02:07:31;6.60;99.90
52731;DHT22;38624;53.242;6.974;2023-02-01T02:09:57;6.70;99.90
52731;DHT22;38624;53.242;6.974;2023-02-01T02:12:23;6.60;99.90
52731;DHT22;38624;53.242;6.974;2023-02-01T02:14:49;6.70;99.90
52731;DHT22;38624;53.242;6.974;2023-02-01T02:35:09;6.40;99.90
52731;DHT22;38624;53.242;6.974;2023-02-01T02:37:42;6.20;99.90
52731;DHT22;38624;53.242;6.974;2023-02-01T02:45:47;6.20;99.90
52731;DHT22;38624;53.242;6.974;2023-02-01T02:48:38;6.20;99.90
52731;DHT22;38624;53.242;6.974;2023-02-01T02:51:08;6.10;99.90
52731;DHT22;38624;53.242;6.974;2023-02-01T02:54:04;6.10;99.90
52731;DHT22;38624;53.242;6.974;2023-02-01T02:56:49;6.20;99.90
52731;DHT22;38624;53.242;6.974;2023-02-01T02:59:34;6.10;99.90
52731;DHT22;38624;53.242;6.974;2023-02-01T03:02:18;6.20;99.90
52731;DHT22;38624;53.242;6.974;2023-02-01T03:05:03;6.20;99.90
52731;DHT22;38624;53.242;6.974;2023-02-01T03:13:09;6.10;99.90
52731;DHT22;38624;53.242;6.974;2023-02-01T03:18:26;6.10;99.90
52731;DHT22;38624;53.242;6.974;2023-02-01T03:20:53;6.20;99.90
52731;DHT22;38624;53.242;6.974;2023-02-01T03:23:21;6.10;99.90
52731;DHT22;38624;53.242;6.974;2023-02-01T03:25:48;6.10;99.90
52731;DHT22;38624;53.242;6.974;2023-02-01T03:28:15;6.00;99.90
52731;DHT22;38624;53.242;6.974;2023-02-01T03:30:44;6.30;99.90
52731;DHT22;38624;53.242;6.974;2023-02-01T03:33:13;6.30;99.90
52731;DHT22;38624;53.242;6.974;2023-02-01T03:38:52;6.40;99.90
52731;DHT22;38624;53.242;6.974;2023-02-01T03:41:23;6.40;99.90
52731;DHT22;38624;53.242;6.974;2023-02-01T03:46:17;6.40;99.90
52731;DHT22;38624;53.242;6.974;2023-02-01T03:48:46;6.10;99.90
52731;DHT22;38624;53.242;6.974;2023-02-01T03:51:12;6.20;99.90
52731;DHT22;38624;53.242;6.974;2023-02-01T03:53:38;6.50;99.90
52731;DHT22;38624;53.242;6.974;2023-02-01T03:56:05;6.50;99.90
52731;DHT22;38624;53.242;6.974;2023-02-01T03:58:31;6.30;99.90
52731;DHT22;38624;53.242;6.974;2023-02-01T04:00:58;6.30;99.90
52731;DHT22;38624;53.242;6.974;2023-02-01T04:03:24;6.50;99.90
52731;DHT22;38624;53.242;6.974;2023-02-01T04:05:50;6.30;99.90
52731;DHT22;38624;53.242;6.974;2023-02-01T04:08:17;6.40;99.90
52731;DHT22;38624;53.242;6.974;2023-02-01T04:10:43;6.20;99.90
52731;DHT22;38624;53.242;6.974;2023-02-01T04:13:09;6.30;99.90
52731;DHT22;38624;53.242;6.974;2023-02-01T04:15:35;6.20;99.90
52731;DHT22;38624;53.242;6.974;2023-02-01T04:18:00;6.10;99.90
52731;DHT22;38624;53.242;6.974;2023-02-01T04:20:26;6.20;99.90
52731;DHT22;38624;53.242;6.974;2023-02-01T04:22:52;6.20;99.90
52731;DHT22;38624;53.242;6.974;2023-02-01T04:25:17;6.10;99.90
52731;DHT22;38624;53.242;6.974;2023-02-01T04:27:43;6.00;99.90
52731;DHT22;38624;53.242;6.974;2023-02-01T04:30:09;6.10;99.90
52731;DHT22;38624;53.242;6.974;2023-02-01T04:32:35;5.90;99.90
52731;DHT22;38624;53.242;6.974;2023-02-01T04:35:01;6.10;99.90
52731;DHT22;38624;53.242;6.974;2023-02-01T04:37:27;6.10;99.90
52731;DHT22;38624;53.242;6.974;2023-02-01T04:39:52;6.20;99.90
52731;DHT22;38624;53.242;6.974;2023-02-01T04:42:18;6.30;99.90
52731;DHT22;38624;53.242;6.974;2023-02-01T04:44:43;6.40;99.90
52731;DHT22;38624;53.242;6.974;2023-02-01T04:47:09;6.30;99.90
52731;DHT22;38624;53.242;6.974;2023-02-01T04:49:34;6.20;99.90
52731;DHT22;38624;53.242;6.974;2023-02-01T04:52:00;6.50;99.90
52731;DHT22;38624;53.242;6.974;2023-02-01T04:54:25;6.20;99.90
52731;DHT22;38624;53.242;6.974;2023-02-01T04:56:51;6.20;99.90
52731;DHT22;38624;53.242;6.974;2023-02-01T04:59:16;6.20;99.90
52731;DHT22;38624;53.242;6.974;2023-02-01T05:01:42;6.30;99.90
52731;DHT22;38624;53.242;6.974;2023-02-01T05:04:08;6.20;99.90
52731;DHT22;38624;53.242;6.974;2023-02-01T05:06:33;6.20;99.90
52731;DHT22;38624;53.242;6.974;2023-02-01T05:08:59;6.20;99.90
52731;DHT22;38624;53.242;6.974;2023-02-01T05:11:24;6.30;99.90
52731;DHT22;38624;53.242;6.974;2023-02-01T05:14:08;6.40;99.90
52731;DHT22;38624;53.242;6.974;2023-02-01T05:16:34;6.20;99.90
52731;DHT22;38624;53.242;6.974;2023-02-01T05:19:00;6.20;99.90
52731;DHT22;38624;53.242;6.974;2023-02-01T05:21:25;6.30;99.90
52731;DHT22;38624;53.242;6.974;2023-02-01T05:23:51;6.30;99.90
52731;DHT22;38624;53.242;6.974;2023-02-01T05:26:35;6.40;99.90
52731;DHT22;38624;53.242;6.974;2023-02-01T05:29:01;6.30;99.90
52731;DHT22;38624;53.242;6.974;2023-02-01T05:31:27;6.20;99.90
52731;DHT22;38624;53.242;6.974;2023-02-01T05:33:52;6.20;99.90
52731;DHT22;38624;53.242;6.974;2023-02-01T05:36:18;6.20;99.90
52731;DHT22;38624;53.242;6.974;2023-02-01T05:38:44;6.10;99.90
52731;DHT22;38624;53.242;6.974;2023-02-01T05:41:09;6.20;99.90
52731;DHT22;38624;53.242;6.974;2023-02-01T05:43:35;6.50;99.90
52731;DHT22;38624;53.242;6.974;2023-02-01T05:46:00;6.30;99.90
52731;DHT22;38624;53.242;6.974;2023-02-01T05:48:29;6.20;99.90
52731;DHT22;38624;53.242;6.974;2023-02-01T05:50:55;6.20;99.90
52731;DHT22;38624;53.242;6.974;2023-02-01T05:53:20;6.40;99.90
52731;DHT22;38624;53.242;6.974;2023-02-01T05:55:46;6.40;99.90
52731;DHT22;38624;53.242;6.974;2023-02-01T05:58:12;6.50;99.90
52731;DHT22;38624;53.242;6.974;2023-02-01T06:00:38;6.40;99.90
52731;DHT22;38624;53.242;6.974;2023-02-01T06:03:03;6.40;99.90
52731;DHT22;38624;53.242;6.974;2023-02-01T06:05:29;6.40;99.90
52731;DHT22;38624;53.242;6.974;2023-02-01T06:07:55;6.50;99.90
52731;DHT22;38624;53.242;6.974;2023-02-01T06:10:20;6.30;99.90
52731;DHT22;38624;53.242;6.974;2023-02-01T06:12:46;6.20;99.90
52731;DHT22;38624;53.242;6.974;2023-02-01T06:15:12;6.30;99.90
52731;DHT22;38624;53.242;6.974;2023-02-01T06:17:38;6.40;99.90
52731;DHT22;38624;53.242;6.974;2023-02-01T06:20:05;6.50;99.90
52731;DHT22;38624;53.242;6.974;2023-02-01T06:22:32;6.30;99.90
52731;DHT22;38624;53.242;6.974;2023-02-01T06:24:57;6.60;99.90
52731;DHT22;38624;53.242;6.974;2023-02-01T06:27:24;6.20;99.90
52731;DHT22;38624;53.242;6.974;2023-02-01T06:29:50;6.30;99.90
52731;DHT22;38624;53.242;6.974;2023-02-01T06:32:16;6.10;99.90
52731;DHT22;38624;53.242;6.974;2023-02-01T06:34:42;6.20;99.90
52731;DHT22;38624;53.242;6.974;2023-02-01T06:37:08;6.00;99.90
52731;DHT22;38624;53.242;6.974;2023-02-01T06:39:36;6.20;99.90
52731;DHT22;38624;53.242;6.974;2023-02-01T06:42:02;6.30;99.90
52731;DHT22;38624;53.242;6.974;2023-02-01T06:44:27;6.10;99.90
52731;DHT22;38624;53.242;6.974;2023-02-01T06:46:53;6.20;99.90
52731;DHT22;38624;53.242;6.974;2023-02-01T06:49:20;6.10;99.90
52731;DHT22;38624;53.242;6.974;2023-02-01T06:51:45;6.10;99.90
52731;DHT22;38624;53.242;6.974;2023-02-01T06:54:11;6.30;99.90
52731;DHT22;38624;53.242;6.974;2023-02-01T06:56:36;6.30;99.90
52731;DHT22;38624;53.242;6.974;2023-02-01T06:59:06;6.30;99.90
52731;DHT22;38624;53.242;6.974;2023-02-01T07:01:31;6.20;99.90
52731;DHT22;38624;53.242;6.974;2023-02-01T07:03:57;6.20;99.90
52731;DHT22;38624;53.242;6.974;2023-02-01T07:06:22;6.50;99.90
52731;DHT22;38624;53.242;6.974;2023-02-01T07:08:48;6.40;99.90
52731;DHT22;38624;53.242;6.974;2023-02-01T07:11:14;6.20;99.90
52731;DHT22;38624;53.242;6.974;2023-02-01T07:13:40;6.30;99.90
52731;DHT22;38624;53.242;6.974;2023-02-01T07:16:06;6.20;99.90
52731;DHT22;38624;53.242;6.974;2023-02-01T07:18:32;6.20;99.90
52731;DHT22;38624;53.242;6.974;2023-02-01T07:20:58;6.30;99.90
52731;DHT22;38624;53.242;6.974;2023-02-01T07:23:24;6.30;99.90
52731;DHT22;38624;53.242;6.974;2023-02-01T07:25:53;6.40;99.90
52731;DHT22;38624;53.242;6.974;2023-02-01T07:28:18;6.70;99.90
52731;DHT22;38624;53.242;6.974;2023-02-01T07:30:45;6.50;99.90
52731;DHT22;38624;53.242;6.974;2023-02-01T07:33:23;6.60;99.90
52731;DHT22;38624;53.242;6.974;2023-02-01T07:35:49;6.50;99.90
52731;DHT22;38624;53.242;6.974;2023-02-01T07:38:14;6.40;99.90
52731;DHT22;38624;53.242;6.974;2023-02-01T07:40:40;6.50;99.90
52731;DHT22;38624;53.242;6.974;2023-02-01T07:43:06;6.60;99.90
52731;DHT22;38624;53.242;6.974;2023-02-01T07:45:33;6.50;99.90
52731;DHT22;38624;53.242;6.974;2023-02-01T07:47:59;6.60;99.90
52731;DHT22;38624;53.242;6.974;2023-02-01T07:50:25;6.60;99.90
52731;DHT22;38624;53.242;6.974;2023-02-01T07:52:50;6.60;99.90
52731;DHT22;38624;53.242;6.974;2023-02-01T07:55:16;6.60;99.90
52731;DHT22;38624;53.242;6.974;2023-02-01T07:57:41;6.60;99.90
52731;DHT22;38624;53.242;6.974;2023-02-01T08:00:07;6.50;99.90
52731;DHT22;38624;53.242;6.974;2023-02-01T08:02:52;6.50;99.90
52731;DHT22;38624;53.242;6.974;2023-02-01T08:05:17;6.60;99.90
52731;DHT22;38624;53.242;6.974;2023-02-01T08:07:43;6.60;99.90
52731;DHT22;38624;53.242;6.974;2023-02-01T08:10:09;6.70;99.90
52731;DHT22;38624;53.242;6.974;2023-02-01T08:12:38;6.80;99.90
52731;DHT22;38624;53.242;6.974;2023-02-01T08:15:03;6.90;99.90
52731;DHT22;38624;53.242;6.974;2023-02-01T08:17:29;6.90;99.90
52731;DHT22;38624;53.242;6.974;2023-02-01T08:19:56;6.70;99.90
52731;DHT22;38624;53.242;6.974;2023-02-01T08:22:22;6.60;99.90
52731;DHT22;38624;53.242;6.974;2023-02-01T08:24:47;6.70;99.90
52731;DHT22;38624;53.242;6.974;2023-02-01T08:27:13;6.80;99.90
52731;DHT22;38624;53.242;6.974;2023-02-01T08:29:39;6.80;99.90
52731;DHT22;38624;53.242;6.974;2023-02-01T08:32:04;6.80;99.90
52731;DHT22;38624;53.242;6.974;2023-02-01T08:34:30;6.70;99.90
52731;DHT22;38624;53.242;6.974;2023-02-01T08:36:55;6.80;99.90
52731;DHT22;38624;53.242;6.974;2023-02-01T08:39:25;7.10;99.90
52731;DHT22;38624;53.242;6.974;2023-02-01T08:41:51;7.20;99.90
52731;DHT22;38624;53.242;6.974;2023-02-01T08:44:35;7.00;99.90
52731;DHT22;38624;53.242;6.974;2023-02-01T08:47:02;6.80;99.90
52731;DHT22;38624;53.242;6.974;2023-02-01T08:49:28;6.80;99.90
52731;DHT22;38624;53.242;6.974;2023-02-01T08:51:53;6.90;99.90
52731;DHT22;38624;53.242;6.974;2023-02-01T08:54:20;7.00;99.90
52731;DHT22;38624;53.242;6.974;2023-02-01T08:56:45;7.00;99.90
52731;DHT22;38624;53.242;6.974;2023-02-01T08:59:11;7.00;99.90
52731;DHT22;38624;53.242;6.974;2023-02-01T09:01:36;7.20;99.90
52731;DHT22;38624;53.242;6.974;2023-02-01T09:04:02;7.10;99.90
52731;DHT22;38624;53.242;6.974;2023-02-01T09:06:27;7.00;99.90
52731;DHT22;38624;53.242;6.974;2023-02-01T09:08:53;7.10;99.90
52731;DHT22;38624;53.242;6.974;2023-02-01T09:11:18;7.10;99.90
52731;DHT22;38624;53.242;6.974;2023-02-01T09:13:47;7.20;99.90
52731;DHT22;38624;53.242;6.974;2023-02-01T09:16:13;7.10;99.90
52731;DHT22;38624;53.242;6.974;2023-02-01T09:18:39;7.00;99.90
52731;DHT22;38624;53.242;6.974;2023-02-01T09:21:05;7.10;99.90
52731;DHT22;38624;53.242;6.974;2023-02-01T09:23:31;7.10;99.90
52731;DHT22;38624;53.242;6.974;2023-02-01T09:26:00;7.10;99.90
52731;DHT22;38624;53.242;6.974;2023-02-01T09:28:26;7.30;99.90
52731;DHT22;38624;53.242;6.974;2023-02-01T09:30:58;7.30;99.90
52731;DHT22;38624;53.242;6.974;2023-02-01T09:33:25;7.20;99.90
52731;DHT22;38624;53.242;6.974;2023-02-01T09:35:57;7.20;99.90
52731;DHT22;38624;53.242;6.974;2023-02-01T09:38:23;7.10;99.90
52731;DHT22;38624;53.242;6.974;2023-02-01T09:40:51;7.00;99.90
52731;DHT22;38624;53.242;6.974;2023-02-01T09:45:55;7.10;99.90
52731;DHT22;38624;53.242;6.974;2023-02-01T09:48:30;7.20;99.90
52731;DHT22;38624;53.242;6.974;2023-02-01T09:50:58;7.30;99.90
52731;DHT22;38624;53.242;6.974;2023-02-01T09:56:00;7.20;99.90
52731;DHT22;38624;53.242;6.974;2023-02-01T10:01:32;7.20;99.90
52731;DHT22;38624;53.242;6.974;2023-02-01T10:04:05;7.10;99.90
52731;DHT22;38624;53.242;6.974;2023-02-01T10:21:59;6.40;99.90
52731;DHT22;38624;53.242;6.974;2023-02-01T10:27:02;6.40;99.90
52731;DHT22;38624;53.242;6.974;2023-02-01T10:29:33;6.40;99.90
52731;DHT22;38624;53.242;6.974;2023-02-01T10:32:00;6.40;99.90
52731;DHT22;38624;53.242;6.974;2023-02-01T10:34:26;6.20;99.90
52731;DHT22;38624;53.242;6.974;2023-02-01T10:36:56;6.20;99.90
52731;DHT22;38624;53.242;6.974;2023-02-01T10:39:22;6.30;99.90
52731;DHT22;38624;53.242;6.974;2023-02-01T10:41:48;6.40;99.90
52731;DHT22;38624;53.242;6.974;2023-02-01T10:44:15;6.30;99.90
52731;DHT22;38624;53.242;6.974;2023-02-01T10:46:42;6.30;99.90
52731;DHT22;38624;53.242;6.974;2023-02-01T10:49:11;6.60;99.90
52731;DHT22;38624;53.242;6.974;2023-02-01T10:51:43;6.50;99.90
52731;DHT22;38624;53.242;6.974;2023-02-01T10:54:20;6.50;99.90
52731;DHT22;38624;53.242;6.974;2023-02-01T10:56:46;6.70;99.90
52731;DHT22;38624;53.242;6.974;2023-02-01T10:59:17;6.60;99.90
52731;DHT22;38624;53.242;6.974;2023-02-01T11:01:43;6.60;99.90
52731;DHT22;38624;53.242;6.974;2023-02-01T11:04:13;6.80;99.90
52731;DHT22;38624;53.242;6.974;2023-02-01T11:06:46;6.70;99.90
52731;DHT22;38624;53.242;6.974;2023-02-01T11:09:18;6.70;99.90
52731;DHT22;38624;53.242;6.974;2023-02-01T11:14:13;6.70;99.90
52731;DHT22;38624;53.242;6.974;2023-02-01T11:16:39;6.80;99.90
52731;DHT22;38624;53.242;6.974;2023-02-01T11:19:06;6.10;99.90
52731;DHT22;38624;53.242;6.974;2023-02-01T11:21:32;5.90;99.90
52731;DHT22;38624;53.242;6.974;2023-02-01T11:24:04;5.10;99.90
52731;DHT22;38624;53.242;6.974;2023-02-01T11:26:30;4.50;99.90
52731;DHT22;38624;53.242;6.974;2023-02-01T11:29:05;4.40;99.90
52731;DHT22;38624;53.242;6.974;2023-02-01T11:31:35;4.10;99.90
52731;DHT22;38624;53.242;6.974;2023-02-01T11:34:08;3.90;99.90
52731;DHT22;38624;53.242;6.974;2023-02-01T11:36:36;3.70;99.90
52731;DHT22;38624;53.242;6.974;2023-02-01T11:41:41;3.50;99.90
52731;DHT22;38624;53.242;6.974;2023-02-01T11:44:16;3.50;99.90
52731;DHT22;38624;53.242;6.974;2023-02-01T11:46:44;3.40;99.90
52731;DHT22;38624;53.242;6.974;2023-02-01T11:49:20;3.70;99.90
52731;DHT22;38624;53.242;6.974;2023-02-01T12:09:50;3.10;99.90
52731;DHT22;38624;53.242;6.974;2023-02-01T12:22:49;3.70;99.90
52731;DHT22;38624;53.242;6.974;2023-02-01T12:27:59;3.60;99.90
52731;DHT22;38624;53.242;6.974;2023-02-01T12:43:01;5.10;99.90
52731;DHT22;38624;53.242;6.974;2023-02-01T12:47:55;6.20;99.90
52731;DHT22;38624;53.242;6.974;2023-02-01T12:53:33;4.80;99.90
52731;DHT22;38624;53.242;6.974;2023-02-01T12:56:02;5.10;99.90
52731;DHT22;38624;53.242;6.974;2023-02-01T12:58:39;6.10;99.90
52731;DHT22;38624;53.242;6.974;2023-02-01T13:01:09;5.20;99.90
52731;DHT22;38624;53.242;6.974;2023-02-01T13:11:48;5.80;99.90
52731;DHT22;38624;53.242;6.974;2023-02-01T13:17:20;6.10;99.90
52731;DHT22;38624;53.242;6.974;2023-02-01T13:22:25;6.60;99.90
52731;DHT22;38624;53.242;6.974;2023-02-01T13:24:54;6.90;99.90
52731;DHT22;38624;53.242;6.974;2023-02-01T13:27:21;7.70;99.90
52731;DHT22;38624;53.242;6.974;2023-02-01T13:43:00;7.90;99.90
52731;DHT22;38624;53.242;6.974;2023-02-01T13:45:30;7.90;99.90
52731;DHT22;38624;53.242;6.974;2023-02-01T13:48:01;7.80;99.90
52731;DHT22;38624;53.242;6.974;2023-02-01T13:52:58;8.10;99.90
52731;DHT22;38624;53.242;6.974;2023-02-01T13:55:25;8.30;99.90
52731;DHT22;38624;53.242;6.974;2023-02-01T13:57:58;8.80;99.90
52731;DHT22;38624;53.242;6.974;2023-02-01T14:00:31;8.90;99.90
52731;DHT22;38624;53.242;6.974;2023-02-01T14:13:22;7.90;99.90
52731;DHT22;38624;53.242;6.974;2023-02-01T14:16:30;7.90;99.90
52731;DHT22;38624;53.242;6.974;2023-02-01T14:23:48;7.90;99.90
52731;DHT22;38624;53.242;6.974;2023-02-01T14:26:24;7.80;99.90
52731;DHT22;38624;53.242;6.974;2023-02-01T14:31:32;7.80;99.90
52731;DHT22;38624;53.242;6.974;2023-02-01T14:33:58;7.70;99.90
52731;DHT22;38624;53.242;6.974;2023-02-01T14:36:25;7.50;99.90
52731;DHT22;38624;53.242;6.974;2023-02-01T14:38:52;7.50;99.90
52731;DHT22;38624;53.242;6.974;2023-02-01T14:41:23;7.60;99.90
52731;DHT22;38624;53.242;6.974;2023-02-01T14:43:51;7.60;99.90
52731;DHT22;38624;53.242;6.974;2023-02-01T14:46:16;7.50;99.90
52731;DHT22;38624;53.242;6.974;2023-02-01T14:48:43;7.40;99.90
52731;DHT22;38624;53.242;6.974;2023-02-01T14:51:10;8.70;99.90
52731;DHT22;38624;53.242;6.974;2023-02-01T14:53:36;7.50;99.90
52731;DHT22;38624;53.242;6.974;2023-02-01T15:01:24;7.60;99.90
52731;DHT22;38624;53.242;6.974;2023-02-01T15:08:47;7.80;99.90
52731;DHT22;38624;53.242;6.974;2023-02-01T15:11:14;7.70;99.90
52731;DHT22;38624;53.242;6.974;2023-02-01T15:13:40;7.70;99.90
52731;DHT22;38624;53.242;6.974;2023-02-01T15:16:12;7.80;99.90
52731;DHT22;38624;53.242;6.974;2023-02-01T15:18:38;7.70;99.90
52731;DHT22;38624;53.242;6.974;2023-02-01T15:21:05;7.90;99.90
52731;DHT22;38624;53.242;6.974;2023-02-01T15:23:31;7.60;99.90
52731;DHT22;38624;53.242;6.974;2023-02-01T15:25:57;7.50;99.90
52731;DHT22;38624;53.242;6.974;2023-02-01T15:28:22;7.60;99.90
52731;DHT22;38624;53.242;6.974;2023-02-01T15:31:06;7.50;99.90
52731;DHT22;38624;53.242;6.974;2023-02-01T15:33:32;7.50;99.90
52731;DHT22;38624;53.242;6.974;2023-02-01T15:38:35;7.40;99.90
52731;DHT22;38624;53.242;6.974;2023-02-01T15:41:08;7.20;99.90
52731;DHT22;38624;53.242;6.974;2023-02-01T15:43:39;7.20;99.90
52731;DHT22;38624;53.242;6.974;2023-02-01T15:46:10;7.40;99.90
52731;DHT22;38624;53.242;6.974;2023-02-01T15:48:37;7.30;99.90
52731;DHT22;38624;53.242;6.974;2023-02-01T15:51:03;7.20;99.90
52731;DHT22;38624;53.242;6.974;2023-02-01T15:53:29;7.20;99.90
52731;DHT22;38624;53.242;6.974;2023-02-01T15:55:57;7.20;99.90
52731;DHT22;38624;53.242;6.974;2023-02-01T15:58:24;7.20;99.90
52731;DHT22;38624;53.242;6.974;2023-02-01T16:00:52;7.10;99.90
52731;DHT22;38624;53.242;6.974;2023-02-01T16:06:05;7.20;99.90
52731;DHT22;38624;53.242;6.974;2023-02-01T16:08:31;7.30;99.90
52731;DHT22;38624;53.242;6.974;2023-02-01T16:11:16;7.30;99.90
52731;DHT22;38624;53.242;6.974;2023-02-01T16:13:45;7.20;99.90
52731;DHT22;38624;53.242;6.974;2023-02-01T16:16:11;7.20;99.90
52731;DHT22;38624;53.242;6.974;2023-02-01T16:18:39;7.00;99.90
52731;DHT22;38624;53.242;6.974;2023-02-01T16:21:05;7.10;99.90
52731;DHT22;38624;53.242;6.974;2023-02-01T16:23:33;7.10;99.90
52731;DHT22;38624;53.242;6.974;2023-02-01T16:25:58;7.20;99.90
52731;DHT22;38624;53.242;6.974;2023-02-01T16:28:24;7.10;99.90
52731;DHT22;38624;53.242;6.974;2023-02-01T16:30:50;7.20;99.90
52731;DHT22;38624;53.242;6.974;2023-02-01T16:33:17;7.10;99.90
52731;DHT22;38624;53.242;6.974;2023-02-01T16:35:45;7.00;99.90
52731;DHT22;38624;53.242;6.974;2023-02-01T16:38:12;7.20;99.90
52731;DHT22;38624;53.242;6.974;2023-02-01T16:40:39;7.00;99.90
52731;DHT22;38624;53.242;6.974;2023-02-01T16:43:10;7.10;99.90
52731;DHT22;38624;53.242;6.974;2023-02-01T16:45:36;7.10;99.90
52731;DHT22;38624;53.242;6.974;2023-02-01T16:48:02;7.00;99.90
52731;DHT22;38624;53.242;6.974;2023-02-01T16:50:29;6.90;99.90
52731;DHT22;38624;53.242;6.974;2023-02-01T16:52:57;7.00;99.90
52731;DHT22;38624;53.242;6.974;2023-02-01T16:55:22;7.10;99.90
52731;DHT22;38624;53.242;6.974;2023-02-01T16:57:48;7.00;99.90
52731;DHT22;38624;53.242;6.974;2023-02-01T17:00:14;7.10;99.90
52731;DHT22;38624;53.242;6.974;2023-02-01T17:02:42;7.00;99.90
52731;DHT22;38624;53.242;6.974;2023-02-01T17:05:09;6.90;99.90
52731;DHT22;38624;53.242;6.974;2023-02-01T17:07:35;6.90;99.90
52731;DHT22;38624;53.242;6.974;2023-02-01T17:10:01;6.70;99.90
52731;DHT22;38624;53.242;6.974;2023-02-01T17:12:29;6.80;99.90
52731;DHT22;38624;53.242;6.974;2023-02-01T17:14:55;6.80;99.90
52731;DHT22;38624;53.242;6.974;2023-02-01T17:17:21;6.70;99.90
52731;DHT22;38624;53.242;6.974;2023-02-01T17:19:48;6.90;99.90
52731;DHT22;38624;53.242;6.974;2023-02-01T17:22:17;7.00;99.90
52731;DHT22;38624;53.242;6.974;2023-02-01T17:24:43;6.90;99.90
52731;DHT22;38624;53.242;6.974;2023-02-01T17:27:08;6.90;99.90
52731;DHT22;38624;53.242;6.974;2023-02-01T17:29:34;6.80;99.90
52731;DHT22;38624;53.242;6.974;2023-02-01T17:31:59;6.90;99.90
52731;DHT22;38624;53.242;6.974;2023-02-01T17:34:25;6.80;99.90
52731;DHT22;38624;53.242;6.974;2023-02-01T17:36:51;6.80;99.90
52731;DHT22;38624;53.242;6.974;2023-02-01T17:39:17;6.70;99.90
52731;DHT22;38624;53.242;6.974;2023-02-01T17:42:01;6.70;99.90
52731;DHT22;38624;53.242;6.974;2023-02-01T17:44:27;6.60;99.90
52731;DHT22;38624;53.242;6.974;2023-02-01T17:46:53;6.60;99.90
52731;DHT22;38624;53.242;6.974;2023-02-01T17:49:20;6.70;99.90
52731;DHT22;38624;53.242;6.974;2023-02-01T17:51:45;6.70;99.90
52731;DHT22;38624;53.242;6.974;2023-02-01T17:54:11;6.70;99.90
52731;DHT22;38624;53.242;6.974;2023-02-01T17:56:37;6.60;99.90
52731;DHT22;38624;53.242;6.974;2023-02-01T17:59:03;6.60;99.90
52731;DHT22;38624;53.242;6.974;2023-02-01T18:01:28;6.70;99.90
52731;DHT22;38624;53.242;6.974;2023-02-01T18:03:54;6.60;99.90
52731;DHT22;38624;53.242;6.974;2023-02-01T18:06:21;6.60;99.90
52731;DHT22;38624;53.242;6.974;2023-02-01T18:08:47;6.40;99.90
52731;DHT22;38624;53.242;6.974;2023-02-01T18:11:14;6.60;99.90
52731;DHT22;38624;53.242;6.974;2023-02-01T18:13:40;6.70;99.90
52731;DHT22;38624;53.242;6.974;2023-02-01T18:16:06;6.50;99.90
52731;DHT22;38624;53.242;6.974;2023-02-01T18:18:31;6.40;99.90
52731;DHT22;38624;53.242;6.974;2023-02-01T18:20:58;6.60;99.90
52731;DHT22;38624;53.242;6.974;2023-02-01T18:23:24;6.40;99.90
52731;DHT22;38624;53.242;6.974;2023-02-01T18:25:50;6.60;99.90
52731;DHT22;38624;53.242;6.974;2023-02-01T18:28:17;6.60;99.90
52731;DHT22;38624;53.242;6.974;2023-02-01T18:30:43;6.80;99.90
52731;DHT22;38624;53.242;6.974;2023-02-01T18:33:11;6.70;99.90
52731;DHT22;38624;53.242;6.974;2023-02-01T18:35:36;6.40;99.90
52731;DHT22;38624;53.242;6.974;2023-02-01T18:38:02;6.30;99.90
52731;DHT22;38624;53.242;6.974;2023-02-01T18:40:32;6.20;99.90
52731;DHT22;38624;53.242;6.974;2023-02-01T18:42:58;6.20;99.90
52731;DHT22;38624;53.242;6.974;2023-02-01T18:47:58;6.10;99.90
52731;DHT22;38624;53.242;6.974;2023-02-01T18:50:24;6.30;99.90